Addis, Louisiana
Current Conditions -  °F | °C
As of 12:53 AM on Thursday 23 Oct 2014 (Local Time) from KBTR Reporting Station
Clear Clear  
Wind Chill: 57°   Ceiling: Unl
Heat Index: 57°   Visibility: 10mi
Dew Point: 50°   Wind: 5mph
Humidity: 77%   Direction: 40°NE
Pressure: 30.09"   Gusts: NA
Location:  30.35°N, 91.27°W
Report Text: KBTR 230553Z 04004KT 10SM CLR 14/10 A3009 RMK AO2 SLP188 T01390100 10183 20139 402670128 58001
Loading
Personal Weather Stations






























Interactive Weather Map New forecast layout! Learn more

10-Day Weather Forecast

Advertisements
Track Severe Weather on mobile